createdAt,value
2022-10-30T00:01:22.251Z,100798.75
2022-10-30T00:03:50.130Z,100788.25
2022-10-30T00:08:46.033Z,100793.72
2022-10-30T00:11:14.409Z,100792.78
2022-10-30T00:13:46.833Z,100793.81
2022-10-30T00:16:14.745Z,100792.25
2022-10-30T00:18:43.413Z,100784.19
2022-10-30T00:21:15.334Z,100794.84
2022-10-30T00:23:48.935Z,100794.94
2022-10-30T00:26:18.658Z,100797.72
2022-10-30T00:28:51.843Z,100803.72
2022-10-30T00:31:21.148Z,100784.72
2022-10-30T00:33:53.785Z,100809.19
2022-10-30T00:36:24.331Z,100807.53
2022-10-30T00:38:52.303Z,100813.78
2022-10-30T00:41:24.810Z,100790.34
2022-10-30T00:43:52.803Z,100783.25
2022-10-30T00:46:40.046Z,100791.91
2022-10-30T00:49:17.013Z,100791.84
2022-10-30T00:51:53.893Z,100784.91
2022-10-30T00:54:24.179Z,100784.13
2022-10-30T00:56:53.581Z,100790.09
2022-10-30T00:59:30.498Z,100779.06
2022-10-30T01:01:59.077Z,100772.59
2022-10-30T01:04:30.394Z,100782.03
2022-10-30T01:06:59.687Z,100758.84
2022-10-30T01:09:27.612Z,100777.63
2022-10-30T01:11:58.323Z,100766.28
2022-10-30T01:14:26.521Z,100787.88
2022-10-30T01:17:38.770Z,100793.75
2022-10-30T01:20:45.566Z,100783.09
2022-10-30T01:23:54.800Z,100786.53
2022-10-30T01:26:32.678Z,100774.81
2022-10-30T01:30:03.483Z,100770.41
2022-10-30T01:33:25.192Z,100771.78
2022-10-30T01:36:17.400Z,100768.59
2022-10-30T01:38:56.752Z,100788.13
2022-10-30T01:41:26.190Z,100772.41
2022-10-30T01:44:06.425Z,100767.50
2022-10-30T01:47:27.554Z,100750.44
2022-10-30T01:50:38.957Z,100771.22
2022-10-30T01:53:21.183Z,100768.78
2022-10-30T01:56:06.605Z,100762.44
2022-10-30T01:59:10.963Z,100755.28
2022-10-30T02:01:40.672Z,100757.25
2022-10-30T02:04:12.717Z,100752.00
2022-10-30T02:06:43.684Z,100764.28
2022-10-30T02:09:17.940Z,100766.91
2022-10-30T02:11:53.000Z,100762.53
2022-10-30T02:14:41.684Z,100760.72
2022-10-30T02:17:12.061Z,100736.66
2022-10-30T02:19:40.414Z,100764.53
2022-10-30T02:22:11.471Z,100768.19
2022-10-30T02:24:39.996Z,100763.22
2022-10-30T02:27:09.467Z,100765.06
2022-10-30T02:29:38.780Z,100757.06
2022-10-30T02:32:08.582Z,100758.97
2022-10-30T02:34:38.193Z,100743.97
2022-10-30T02:37:06.260Z,100738.09
2022-10-30T02:39:36.011Z,100744.22
2022-10-30T02:42:05.930Z,100750.56
2022-10-30T02:44:34.721Z,100749.97
2022-10-30T02:47:07.358Z,100756.34
2022-10-30T02:49:37.965Z,100753.84
2022-10-30T02:52:11.976Z,100751.78
2022-10-30T02:54:43.106Z,100741.78
2022-10-30T02:57:11.450Z,100753.75
2022-10-30T02:59:39.453Z,100746.66
2022-10-30T03:02:08.695Z,100740.66
2022-10-30T03:04:37.304Z,100759.13
2022-10-30T03:07:05.499Z,100742.75
2022-10-30T03:09:35.474Z,100747.84
2022-10-30T03:12:05.753Z,100741.22
2022-10-30T03:14:33.680Z,100745.69
2022-10-30T03:17:02.054Z,100751.22
2022-10-30T03:19:30.464Z,100745.38
2022-10-30T03:22:00.263Z,100752.06
2022-10-30T03:24:28.151Z,100745.22
2022-10-30T03:26:57.378Z,100754.75
2022-10-30T03:29:26.043Z,100761.97
2022-10-30T03:31:53.957Z,100765.66
2022-10-30T03:34:23.168Z,100758.13
2022-10-30T03:36:51.629Z,100759.94
2022-10-30T03:39:20.217Z,100758.53
2022-10-30T03:41:48.773Z,100770.03
2022-10-30T03:44:17.856Z,100775.34
2022-10-30T03:46:45.993Z,100743.84
2022-10-30T03:49:41.863Z,100767.63
2022-10-30T03:52:16.071Z,100772.09
2022-10-30T03:54:44.002Z,100769.59
2022-10-30T03:57:14.682Z,100765.34
2022-10-30T04:00:10.639Z,100767.78
2022-10-30T04:02:56.858Z,100781.31
2022-10-30T04:05:28.946Z,100766.28
2022-10-30T04:08:07.488Z,100775.06
2022-10-30T04:10:41.949Z,100768.31
2022-10-30T04:13:13.639Z,100769.91
2022-10-30T04:15:56.183Z,100761.13
2022-10-30T04:18:27.423Z,100762.16
2022-10-30T04:20:56.274Z,100752.78
2022-10-30T04:23:25.350Z,100752.78
2022-10-30T04:25:53.478Z,100749.28
2022-10-30T04:28:21.762Z,100758.16
2022-10-30T04:30:50.002Z,100758.44
2022-10-30T04:33:20.255Z,100758.69
2022-10-30T04:35:50.938Z,100756.25
2022-10-30T04:38:22.690Z,100759.25
2022-10-30T04:40:51.207Z,100763.75
2022-10-30T04:43:21.299Z,100767.53
2022-10-30T04:45:53.475Z,100758.16
2022-10-30T04:48:24.071Z,100767.13
2022-10-30T04:50:55.478Z,100765.72
2022-10-30T04:53:27.079Z,100768.56
2022-10-30T04:56:06.442Z,100765.22
2022-10-30T04:58:35.247Z,100761.78
2022-10-30T05:01:07.391Z,100765.44
2022-10-30T05:03:38.912Z,100762.22
2022-10-30T05:06:30.419Z,100761.81
2022-10-30T05:09:00.779Z,100763.59
2022-10-30T05:11:42.373Z,100743.22
2022-10-30T05:14:12.218Z,100749.47
2022-10-30T05:16:40.548Z,100730.06
2022-10-30T05:19:11.218Z,100746.00
2022-10-30T05:21:47.308Z,100739.69
2022-10-30T05:24:15.532Z,100738.22
2022-10-30T05:26:48.831Z,100737.69
2022-10-30T05:29:19.203Z,100745.81
2022-10-30T05:31:48.408Z,100746.72
2022-10-30T05:34:16.187Z,100747.84
2022-10-30T05:36:47.136Z,100732.31
2022-10-30T05:39:18.850Z,100750.09
2022-10-30T05:41:50.054Z,100748.50
2022-10-30T05:44:40.534Z,100744.34
2022-10-30T05:47:13.535Z,100742.06
2022-10-30T05:49:47.228Z,100743.66
2022-10-30T05:52:20.620Z,100748.94
2022-10-30T05:54:52.984Z,100758.72
2022-10-30T05:57:44.333Z,100759.97
2022-10-30T06:00:14.675Z,100761.59
2022-10-30T06:02:45.650Z,100757.50
2022-10-30T06:05:16.415Z,100760.75
2022-10-30T06:07:45.692Z,100764.25
2022-10-30T06:10:15.001Z,100768.78
2022-10-30T06:13:06.150Z,100778.50
2022-10-30T06:15:45.556Z,100773.94
2022-10-30T06:18:15.663Z,100776.59
2022-10-30T06:20:49.766Z,100776.59
2022-10-30T06:23:27.281Z,100775.66
2022-10-30T06:26:04.317Z,100772.94
2022-10-30T06:28:36.641Z,100773.78
2022-10-30T06:31:06.110Z,100783.56
2022-10-30T06:33:36.438Z,100777.47
2022-10-30T06:36:08.421Z,100791.53
2022-10-30T06:38:37.354Z,100788.06
2022-10-30T06:41:06.256Z,100780.78
2022-10-30T06:43:38.447Z,100787.88
2022-10-30T06:46:14.119Z,100793.19
2022-10-30T06:48:44.609Z,100785.00
2022-10-30T06:51:17.127Z,100784.22
2022-10-30T06:53:48.683Z,100777.16
2022-10-30T06:56:35.087Z,100793.75
2022-10-30T06:59:27.883Z,100787.44
2022-10-30T07:02:17.323Z,100791.81
2022-10-30T07:04:53.483Z,100783.03
2022-10-30T07:07:21.481Z,100778.47
2022-10-30T07:09:49.963Z,100790.75
2022-10-30T07:12:23.735Z,100789.88
2022-10-30T07:15:11.434Z,100790.59
2022-10-30T07:18:07.568Z,100787.22
2022-10-30T07:20:49.670Z,100783.41
2022-10-30T07:23:19.814Z,100783.34
2022-10-30T07:25:52.893Z,100785.00
2022-10-30T07:28:25.305Z,100788.41
2022-10-30T07:31:34.811Z,100804.03
2022-10-30T07:34:28.364Z,100796.00
2022-10-30T07:37:30.611Z,100804.28
2022-10-30T07:40:13.249Z,100810.28
2022-10-30T07:43:06.160Z,100802.00
2022-10-30T07:45:58.547Z,100801.72
2022-10-30T07:49:05.804Z,100791.78
2022-10-30T07:51:44.657Z,100789.81
2022-10-30T07:54:15.731Z,100796.41
2022-10-30T07:56:44.438Z,100812.31
2022-10-30T07:59:33.043Z,100821.53
2022-10-30T08:02:24.465Z,100800.06
2022-10-30T08:05:16.764Z,100797.13
2022-10-30T08:08:08.523Z,100800.38
2022-10-30T08:10:39.203Z,100821.53
2022-10-30T08:13:09.444Z,100822.00
2022-10-30T08:15:39.844Z,100823.41
2022-10-30T08:18:09.842Z,100817.44
2022-10-30T08:20:41.493Z,100825.97
2022-10-30T08:23:10.508Z,100822.88
2022-10-30T08:25:40.298Z,100812.81
2022-10-30T08:28:12.216Z,100802.84
2022-10-30T08:30:45.890Z,100820.72
2022-10-30T08:33:18.113Z,100813.25
2022-10-30T08:36:02.552Z,100814.75
2022-10-30T08:38:37.266Z,100813.38
2022-10-30T08:41:35.704Z,100813.13
2022-10-30T08:44:06.244Z,100821.53
2022-10-30T08:47:03.070Z,100808.69
2022-10-30T08:49:43.028Z,100812.59
2022-10-30T08:52:13.795Z,100816.56
2022-10-30T08:54:45.974Z,100806.31
2022-10-30T08:57:18.556Z,100796.59
2022-10-30T08:59:49.124Z,100795.09
2022-10-30T09:02:41.929Z,100805.41
2022-10-30T09:06:01.581Z,100797.31
2022-10-30T09:09:23.508Z,100801.19
2022-10-30T09:12:14.739Z,100795.50
2022-10-30T09:14:57.345Z,100808.19
2022-10-30T09:17:26.511Z,100809.47
2022-10-30T09:19:58.083Z,100808.22
2022-10-30T09:22:35.002Z,100799.19
2022-10-30T09:25:05.891Z,100805.66
2022-10-30T09:27:51.334Z,100813.25
2022-10-30T09:30:21.733Z,100797.31
2022-10-30T09:32:59.817Z,100810.47
2022-10-30T09:36:03.397Z,100808.56
2022-10-30T09:38:32.710Z,100796.34
2022-10-30T09:41:59.767Z,100816.66
2022-10-30T09:45:27.333Z,100813.69
2022-10-30T09:48:20.350Z,100816.97
2022-10-30T09:51:24.272Z,100814.63
2022-10-30T09:54:37.603Z,100811.75
2022-10-30T09:57:44.028Z,100815.41
2022-10-30T10:00:23.310Z,100818.69
2022-10-30T10:03:18.506Z,100818.94
2022-10-30T10:06:20.391Z,100811.44
2022-10-30T10:09:23.936Z,100809.19
2022-10-30T10:12:31.181Z,100807.72
2022-10-30T10:15:03.522Z,100806.84
2022-10-30T10:17:40.788Z,100812.66
2022-10-30T10:20:42.539Z,100812.41
2022-10-30T10:23:37.031Z,100810.81
2022-10-30T10:26:44.934Z,100816.50
2022-10-30T10:29:58.076Z,100810.06
2022-10-30T10:32:38.166Z,100809.53
2022-10-30T10:35:43.053Z,100806.50
2022-10-30T10:38:58.683Z,100777.97
2022-10-30T10:41:58.302Z,100794.22
2022-10-30T10:45:05.593Z,100802.34
2022-10-30T10:48:07.951Z,100795.88
2022-10-30T10:50:58.643Z,100794.38
2022-10-30T10:53:59.451Z,100783.44
2022-10-30T10:56:44.712Z,100779.34
2022-10-30T10:59:39.349Z,100780.44
2022-10-30T11:02:38.271Z,100786.28
2022-10-30T11:05:33.942Z,100787.59
2022-10-30T11:08:21.548Z,100775.38
2022-10-30T11:11:04.074Z,100759.16
2022-10-30T11:13:39.562Z,100768.03
2022-10-30T11:16:35.737Z,100762.91
2022-10-30T11:19:19.410Z,100763.34
2022-10-30T11:21:56.429Z,100753.38
2022-10-30T11:24:36.860Z,100753.25
2022-10-30T11:27:31.693Z,100743.63
2022-10-30T11:30:06.427Z,100751.78
2022-10-30T11:32:35.584Z,100745.78
2022-10-30T11:35:11.714Z,100750.94
2022-10-30T11:38:12.974Z,100739.56
2022-10-30T11:40:49.682Z,100756.88
2022-10-30T11:43:24.195Z,100760.09
2022-10-30T11:45:53.619Z,100743.22
2022-10-30T11:48:33.067Z,100750.00
2022-10-30T11:51:04.671Z,100749.91
2022-10-30T11:53:50.009Z,100749.78
2022-10-30T11:56:25.357Z,100756.06
2022-10-30T11:59:04.460Z,100750.13
2022-10-30T12:01:40.121Z,100752.63
2022-10-30T12:04:28.973Z,100751.63
2022-10-30T12:07:21.892Z,100749.78
2022-10-30T12:09:52.199Z,100746.31
2022-10-30T12:12:43.566Z,100738.44
2022-10-30T12:15:26.731Z,100755.06
2022-10-30T12:18:06.003Z,100743.25
2022-10-30T12:20:38.120Z,100743.16
2022-10-30T12:23:25.232Z,100743.78
2022-10-30T12:26:18.972Z,100727.66
2022-10-30T12:29:03.326Z,100733.47
2022-10-30T12:31:55.152Z,100730.41
2022-10-30T12:34:50.791Z,100722.28
2022-10-30T12:37:33.478Z,100732.91
2022-10-30T12:40:20.732Z,100726.38
2022-10-30T12:43:12.225Z,100699.88
2022-10-30T12:45:57.987Z,100723.31
2022-10-30T12:49:16.027Z,100711.88
2022-10-30T12:52:01.665Z,100701.78
2022-10-30T12:55:19.068Z,100712.88
2022-10-30T12:58:05.372Z,100707.47
2022-10-30T13:00:52.288Z,100712.41
2022-10-30T13:03:37.525Z,100695.53
2022-10-30T13:06:29.035Z,100700.50
2022-10-30T13:09:29.992Z,100700.50
2022-10-30T13:12:05.951Z,100703.06
2022-10-30T13:15:37.663Z,100702.72
2022-10-30T13:18:20.213Z,100700.59
2022-10-30T13:21:11.518Z,100695.75
2022-10-30T13:24:12.282Z,100701.03
2022-10-30T13:27:18.453Z,100697.97
2022-10-30T13:30:13.370Z,100698.69
2022-10-30T13:33:11.198Z,100698.22
2022-10-30T13:35:56.995Z,100695.28
2022-10-30T13:39:04.338Z,100697.63
2022-10-30T13:41:54.470Z,100700.81
2022-10-30T13:44:58.488Z,100695.03
2022-10-30T13:47:53.725Z,100689.38
2022-10-30T13:50:50.552Z,100691.59
2022-10-30T13:53:30.871Z,100681.00
2022-10-30T13:56:01.038Z,100697.13
2022-10-30T13:58:48.427Z,100690.59
2022-10-30T14:01:47.828Z,100703.44
2022-10-30T14:04:48.828Z,100707.63
2022-10-30T14:07:33.214Z,100693.94
2022-10-30T14:10:44.594Z,100703.78
2022-10-30T14:13:27.728Z,100687.16
2022-10-30T14:16:34.117Z,100695.78
2022-10-30T14:19:15.237Z,100699.34
2022-10-30T14:21:56.576Z,100706.63
2022-10-30T14:24:30.564Z,100701.34
2022-10-30T14:27:06.505Z,100703.16
2022-10-30T14:29:40.432Z,100707.13
2022-10-30T14:32:15.665Z,100702.66
2022-10-30T14:34:50.956Z,100703.94
2022-10-30T14:37:38.936Z,100706.00
2022-10-30T14:40:54.226Z,100695.41
2022-10-30T14:43:56.834Z,100693.78
2022-10-30T14:47:00.821Z,100702.66
2022-10-30T14:49:56.676Z,100699.59
2022-10-30T14:52:51.336Z,100698.84
2022-10-30T14:55:56.187Z,100697.47
2022-10-30T14:58:32.300Z,100696.00
2022-10-30T15:01:14.965Z,100700.31
2022-10-30T15:04:28.266Z,100696.25
2022-10-30T15:07:44.642Z,100694.75
2022-10-30T15:10:35.355Z,100691.28
2022-10-30T15:13:23.902Z,100696.72
2022-10-30T15:16:08.080Z,100680.28
2022-10-30T15:18:39.981Z,100685.09
2022-10-30T15:21:19.210Z,100704.31
2022-10-30T15:23:47.590Z,100694.81
2022-10-30T15:26:23.610Z,100689.53
2022-10-30T15:28:56.172Z,100706.63
2022-10-30T15:31:28.450Z,100686.78
2022-10-30T15:34:02.023Z,100692.72
2022-10-30T15:36:44.619Z,100698.34
2022-10-30T15:39:24.085Z,100695.38
2022-10-30T15:42:01.947Z,100702.75
2022-10-30T15:44:37.373Z,100701.38
2022-10-30T15:47:13.637Z,100704.78
2022-10-30T15:49:57.998Z,100709.69
2022-10-30T15:52:32.277Z,100702.16
2022-10-30T15:55:07.137Z,100691.28
2022-10-30T15:58:04.664Z,100695.69
2022-10-30T16:00:45.053Z,100690.94
2022-10-30T16:03:13.386Z,100708.41
2022-10-30T16:05:42.983Z,100708.63
2022-10-30T16:08:23.652Z,100701.31
2022-10-30T16:10:56.283Z,100709.44
2022-10-30T16:13:33.689Z,100703.84
2022-10-30T16:16:05.938Z,100697.66
2022-10-30T16:18:37.456Z,100704.38
2022-10-30T16:21:14.991Z,100689.81
2022-10-30T16:23:53.064Z,100694.03
2022-10-30T16:26:35.471Z,100680.75
2022-10-30T16:29:27.017Z,100697.84
2022-10-30T16:31:57.230Z,100695.59
2022-10-30T16:34:43.861Z,100696.53
2022-10-30T16:37:25.036Z,100698.50
2022-10-30T16:39:58.174Z,100693.59
2022-10-30T16:42:28.558Z,100693.97
2022-10-30T16:45:18.703Z,100704.41
2022-10-30T16:48:08.349Z,100682.94
2022-10-30T16:50:39.942Z,100704.34
2022-10-30T16:53:19.230Z,100703.69
2022-10-30T16:55:47.701Z,100712.22
2022-10-30T16:58:19.153Z,100698.28
2022-10-30T17:01:01.998Z,100708.00
2022-10-30T17:03:37.708Z,100692.56
2022-10-30T17:06:45.302Z,100706.19
2022-10-30T17:09:27.124Z,100699.47
2022-10-30T17:12:23.978Z,100719.88
2022-10-30T17:15:05.319Z,100725.94
2022-10-30T17:17:41.051Z,100716.97
2022-10-30T17:20:25.181Z,100732.31
2022-10-30T17:23:21.376Z,100726.16
2022-10-30T17:25:52.433Z,100733.81
2022-10-30T17:28:37.260Z,100726.16
2022-10-30T17:31:50.158Z,100749.22
2022-10-30T17:34:22.121Z,100754.25
2022-10-30T17:36:51.337Z,100746.00
2022-10-30T17:39:21.524Z,100758.75
2022-10-30T17:41:57.973Z,100760.94
2022-10-30T17:44:31.633Z,100776.50
2022-10-30T17:47:08.927Z,100778.69
2022-10-30T17:49:38.753Z,100786.13
2022-10-30T17:52:10.286Z,100773.25
2022-10-30T17:54:40.356Z,100788.63
2022-10-30T17:57:16.271Z,100794.59
2022-10-30T17:59:48.126Z,100800.84
2022-10-30T18:02:23.232Z,100805.28
2022-10-30T18:04:55.570Z,100807.00
2022-10-30T18:07:24.853Z,100801.50
2022-10-30T18:09:54.925Z,100803.06
2022-10-30T18:12:25.050Z,100808.34
2022-10-30T18:14:54.564Z,100801.44
2022-10-30T18:17:23.765Z,100810.47
2022-10-30T18:19:53.255Z,100808.56
2022-10-30T18:22:22.323Z,100805.28
2022-10-30T18:24:50.935Z,100819.53
2022-10-30T18:27:26.591Z,100819.25
2022-10-30T18:29:57.808Z,100828.28
2022-10-30T18:32:26.840Z,100817.41
2022-10-30T18:34:56.833Z,100816.53
2022-10-30T18:37:26.564Z,100817.78
2022-10-30T18:39:58.322Z,100825.88
2022-10-30T18:42:26.990Z,100819.91
2022-10-30T18:44:58.574Z,100830.56
2022-10-30T18:47:28.825Z,100822.78
2022-10-30T18:49:59.439Z,100825.38
2022-10-30T18:52:31.461Z,100823.84
2022-10-30T18:55:01.282Z,100822.13
2022-10-30T18:57:30.909Z,100830.97
2022-10-30T19:00:02.429Z,100832.69
2022-10-30T19:02:39.120Z,100830.28
2022-10-30T19:05:40.469Z,100838.28
2022-10-30T19:08:09.392Z,100835.34
2022-10-30T19:10:42.439Z,100825.91
2022-10-30T19:13:20.128Z,100838.91
2022-10-30T19:16:01.152Z,100832.16
2022-10-30T19:18:31.556Z,100840.41
2022-10-30T19:21:05.833Z,100840.41
2022-10-30T19:23:40.361Z,100842.72
2022-10-30T19:28:44.508Z,100837.63
2022-10-30T19:31:24.777Z,100846.75
2022-10-30T19:33:57.487Z,100848.84
2022-10-30T19:36:37.038Z,100857.78
2022-10-30T19:39:14.477Z,100842.53
2022-10-30T19:41:43.834Z,100843.84
2022-10-30T19:44:13.424Z,100861.19
2022-10-30T19:46:44.454Z,100847.31
2022-10-30T19:49:21.630Z,100844.09
2022-10-30T19:51:52.247Z,100839.94
2022-10-30T19:54:21.021Z,100849.75
2022-10-30T19:56:53.338Z,100847.31
2022-10-30T19:59:26.334Z,100856.00
2022-10-30T20:01:55.711Z,100826.47
2022-10-30T20:04:25.213Z,100844.72
2022-10-30T20:06:56.244Z,100856.50
2022-10-30T20:09:34.635Z,100861.03
2022-10-30T20:12:06.338Z,100858.59
2022-10-30T20:14:35.438Z,100864.84
2022-10-30T20:17:03.990Z,100853.72
2022-10-30T20:19:35.827Z,100858.25
2022-10-30T20:22:04.768Z,100854.34
2022-10-30T20:24:35.652Z,100867.88
2022-10-30T20:27:06.589Z,100841.00
2022-10-30T20:29:41.683Z,100868.00
2022-10-30T20:32:13.114Z,100865.41
2022-10-30T20:34:46.925Z,100865.41
2022-10-30T20:37:21.529Z,100874.19
2022-10-30T20:39:55.788Z,100866.53
2022-10-30T20:42:25.842Z,100865.81
2022-10-30T20:44:54.656Z,100877.19
2022-10-30T20:47:25.562Z,100870.22
2022-10-30T20:49:53.909Z,100885.75
2022-10-30T20:52:24.443Z,100889.66
2022-10-30T20:54:55.335Z,100895.22
2022-10-30T20:57:25.189Z,100883.03
2022-10-30T20:59:54.349Z,100867.25
2022-10-30T21:02:24.242Z,100888.31
2022-10-30T21:04:53.651Z,100895.44
2022-10-30T21:07:43.267Z,100885.72
2022-10-30T21:10:27.846Z,100895.59
2022-10-30T21:13:08.797Z,100877.38
2022-10-30T21:16:17.819Z,100899.97
2022-10-30T21:19:00.926Z,100904.38
2022-10-30T21:21:33.665Z,100888.66
2022-10-30T21:24:02.009Z,100897.66
2022-10-30T21:26:32.114Z,100882.75
2022-10-30T21:29:01.960Z,100897.50
2022-10-30T21:31:29.997Z,100879.34
2022-10-30T21:33:59.227Z,100892.53
2022-10-30T21:36:30.134Z,100882.13
2022-10-30T21:39:05.152Z,100879.44
2022-10-30T21:41:34.278Z,100892.78
2022-10-30T21:44:05.010Z,100884.00
2022-10-30T21:46:35.202Z,100884.09
2022-10-30T21:49:08.127Z,100898.00
2022-10-30T21:51:40.964Z,100900.69
2022-10-30T21:54:21.311Z,100905.69
2022-10-30T21:56:50.231Z,100875.97
2022-10-30T21:59:19.593Z,100888.31
2022-10-30T22:01:49.161Z,100889.66
2022-10-30T22:04:19.835Z,100885.38
2022-10-30T22:06:54.005Z,100881.19
2022-10-30T22:09:25.485Z,100897.31
2022-10-30T22:11:59.698Z,100904.75
2022-10-30T22:14:35.312Z,100892.84
2022-10-30T22:17:11.010Z,100892.78
2022-10-30T22:19:40.422Z,100894.84
2022-10-30T22:22:14.691Z,100883.69
2022-10-30T22:24:43.310Z,100881.06
2022-10-30T22:27:13.960Z,100897.81
2022-10-30T22:29:42.284Z,100901.22
2022-10-30T22:32:12.882Z,100894.44
2022-10-30T22:34:45.420Z,100895.06
2022-10-30T22:37:33.640Z,100895.97
2022-10-30T22:40:15.708Z,100895.06
2022-10-30T22:42:48.664Z,100876.66
2022-10-30T22:45:17.263Z,100888.78
2022-10-30T22:47:45.744Z,100891.47
2022-10-30T22:50:21.320Z,100892.19
2022-10-30T22:52:51.301Z,100880.38
2022-10-30T22:55:20.319Z,100893.31
2022-10-30T22:57:54.429Z,100892.44
2022-10-30T23:00:27.767Z,100895.84
2022-10-30T23:02:57.397Z,100878.69
2022-10-30T23:05:25.869Z,100880.38
2022-10-30T23:07:56.371Z,100882.97
2022-10-30T23:10:24.758Z,100897.88
2022-10-30T23:12:59.204Z,100898.22
2022-10-30T23:15:28.491Z,100898.22
2022-10-30T23:17:58.510Z,100881.75
2022-10-30T23:20:29.334Z,100890.75
2022-10-30T23:22:58.839Z,100894.59
2022-10-30T23:25:29.151Z,100889.69
2022-10-30T23:27:57.931Z,100892.53
2022-10-30T23:30:29.122Z,100895.50
2022-10-30T23:32:57.973Z,100881.91
2022-10-30T23:35:29.673Z,100883.47
2022-10-30T23:38:01.204Z,100893.78
2022-10-30T23:40:32.112Z,100877.41
2022-10-30T23:43:00.890Z,100885.25
2022-10-30T23:45:29.549Z,100893.84
2022-10-30T23:48:01.398Z,100899.94
2022-10-30T23:50:30.695Z,100892.69
2022-10-30T23:52:59.052Z,100888.50
2022-10-30T23:55:28.780Z,100878.94
2022-10-30T23:58:01.280Z,100874.06
